Time;durP1;ratioP1;P1;durP2;ratioP2;P2;SDS_P1;SDS_P2;PMS_P1;PMS_P2;Temp;Humidity;BMP_temperature;BMP_pressure;BME280_temperature;BME280_humidity;BME280_pressure;Samples;Min_cycle;Max_cycle;Signal;HPM_P1;HPM_P2
2022/04/14 00:00:30;;;;;;;6.60;6.00;;;10.40;99.90;;;;;;5053726;28;20254;-77
2022/04/14 00:02:56;;;;;;;5.28;4.78;;;10.40;99.90;;;;;;5053279;28;20192;-77
2022/04/14 00:05:21;;;;;;;5.78;5.18;;;10.40;99.90;;;;;;5053599;28;20586;-77
2022/04/14 00:07:47;;;;;;;6.95;5.80;;;10.30;99.90;;;;;;5042000;28;20185;-76
2022/04/14 00:10:14;;;;;;;5.57;5.05;;;10.30;99.90;;;;;;5033521;28;20211;-76
2022/04/14 00:12:41;;;;;;;5.72;5.22;;;10.20;99.90;;;;;;5032941;28;20208;-76
2022/04/14 00:15:07;;;;;;;6.20;5.55;;;10.20;99.90;;;;;;5017911;28;20183;-76
2022/04/14 00:17:33;;;;;;;7.05;5.78;;;10.10;99.90;;;;;;5033388;28;20553;-76
2022/04/14 00:20:00;;;;;;;6.05;5.55;;;10.00;99.90;;;;;;5033589;28;20214;-78
2022/04/14 00:22:26;;;;;;;6.93;6.13;;;10.00;99.90;;;;;;5033152;28;20191;-77
2022/04/14 00:24:51;;;;;;;6.43;5.32;;;10.00;99.90;;;;;;5049077;28;20184;-77
2022/04/14 00:27:18;;;;;;;6.07;5.55;;;10.00;99.90;;;;;;5052923;28;20681;-77
2022/04/14 00:29:44;;;;;;;6.15;5.60;;;10.00;99.90;;;;;;5053342;28;20658;-77
2022/04/14 00:32:10;;;;;;;6.45;5.85;;;10.10;99.90;;;;;;5047843;28;20207;-77
2022/04/14 00:34:35;;;;;;;6.68;6.07;;;10.10;99.90;;;;;;5033126;28;20196;-77
2022/04/14 00:37:01;;;;;;;6.05;5.55;;;10.10;99.90;;;;;;5033330;28;20168;-76
2022/04/14 00:39:27;;;;;;;6.07;5.55;;;10.10;99.90;;;;;;5033021;28;20686;-77
2022/04/14 00:41:52;;;;;;;6.38;5.75;;;10.10;99.90;;;;;;5032977;28;20561;-77
2022/04/14 00:44:18;;;;;;;6.18;5.30;;;10.00;99.90;;;;;;5032971;28;20197;-77
2022/04/14 00:46:43;;;;;;;7.95;5.70;;;9.90;99.90;;;;;;5032822;28;20185;-77
2022/04/14 00:49:09;;;;;;;7.15;6.13;;;9.90;99.90;;;;;;5032963;28;20179;-77
2022/04/14 00:51:35;;;;;;;5.93;5.43;;;10.00;99.90;;;;;;5033936;28;20303;-77
2022/04/14 00:54:01;;;;;;;6.20;5.57;;;10.00;99.90;;;;;;5052726;28;20202;-77
2022/04/14 00:56:26;;;;;;;6.57;5.90;;;10.00;99.90;;;;;;5052014;28;20176;-77
2022/04/14 00:58:52;;;;;;;8.57;6.40;;;10.00;99.90;;;;;;5053050;28;20241;-77
2022/04/14 01:01:20;;;;;;;7.45;6.40;;;10.00;99.90;;;;;;5046519;28;20189;-77
2022/04/14 01:03:47;;;;;;;5.97;5.38;;;10.00;99.90;;;;;;5033634;28;20185;-78
2022/04/14 01:06:19;;;;;;;7.88;6.10;;;10.00;99.90;;;;;;5015176;28;20227;-77
2022/04/14 01:09:16;;;;;;;7.15;6.38;;;9.90;99.90;;;;;;5020149;28;20226;-78
2022/04/14 01:11:31;;;;;;;7.40;6.45;;;9.70;99.90;;;;;;5037436;28;20208;-79
2022/04/14 01:13:56;;;;;;;7.50;6.20;;;9.50;99.90;;;;;;5049381;28;20656;-79
2022/04/14 01:16:22;;;;;;;8.15;6.55;;;9.40;99.90;;;;;;5059480;28;20171;-79
2022/04/14 01:18:48;;;;;;;8.68;6.70;;;9.30;99.90;;;;;;5053423;28;20206;-77
2022/04/14 01:21:13;;;;;;;9.27;6.05;;;9.30;99.90;;;;;;5051747;28;20187;-78
2022/04/14 01:23:43;;;;;;;6.95;6.32;;;9.20;99.90;;;;;;5033507;28;20231;-78
2022/04/14 01:26:10;;;;;;;6.68;6.05;;;9.20;99.90;;;;;;5052389;28;20522;-78
2022/04/14 01:28:36;;;;;;;6.78;6.05;;;9.20;99.90;;;;;;5053748;28;20184;-78
2022/04/14 01:31:02;;;;;;;6.80;5.68;;;9.30;99.90;;;;;;5049332;28;20609;-78
2022/04/14 01:33:28;;;;;;;6.47;5.88;;;9.30;99.90;;;;;;5042849;28;20727;-77
2022/04/14 01:35:54;;;;;;;8.95;5.90;;;9.30;99.90;;;;;;5047808;28;20262;-78
2022/04/14 01:38:19;;;;;;;11.90;5.45;;;9.40;99.90;;;;;;5046479;28;20279;-79
2022/04/14 01:40:45;;;;;;;6.00;5.50;;;9.40;99.90;;;;;;5044515;28;20542;-77
2022/04/14 01:43:11;;;;;;;8.07;6.30;;;9.40;99.90;;;;;;5048802;28;20686;-76
2022/04/14 01:45:36;;;;;;;7.72;6.20;;;9.20;99.90;;;;;;5051975;28;20188;-76
2022/04/14 01:48:02;;;;;;;6.85;6.25;;;9.10;99.90;;;;;;5033674;28;20222;-76
2022/04/14 01:50:27;;;;;;;6.15;5.65;;;9.10;99.90;;;;;;5051382;28;20203;-77
2022/04/14 01:52:53;;;;;;;6.95;5.50;;;9.00;99.90;;;;;;5040149;28;20199;-77
2022/04/14 01:55:19;;;;;;;8.43;6.03;;;8.90;99.90;;;;;;5048111;28;20184;-76
2022/04/14 01:57:45;;;;;;;7.40;6.78;;;8.90;99.90;;;;;;5043333;28;20242;-76
2022/04/14 02:00:13;;;;;;;6.82;6.15;;;8.80;99.90;;;;;;5045254;28;20661;-76
2022/04/14 02:06:00;;;;;;;6.28;5.78;;;8.70;99.90;;;;;;5037311;28;20654;-76
2022/04/14 02:08:25;;;;;;;6.65;5.95;;;8.70;99.90;;;;;;5042084;28;20172;-76
2022/04/14 02:10:51;;;;;;;6.43;5.68;;;8.60;99.90;;;;;;5041132;28;20199;-76
2022/04/14 02:13:17;;;;;;;8.30;6.18;;;8.60;99.90;;;;;;5040271;28;20563;-76
2022/04/14 02:15:42;;;;;;;7.25;6.55;;;8.60;99.90;;;;;;5041261;28;20215;-76
2022/04/14 02:18:08;;;;;;;6.70;5.97;;;8.50;99.90;;;;;;5041795;28;20207;-76
2022/04/14 02:20:33;;;;;;;10.70;6.25;;;8.50;99.90;;;;;;5042189;28;20191;-76
2022/04/14 02:22:59;;;;;;;7.40;6.05;;;8.50;99.90;;;;;;5041242;28;20203;-76
2022/04/14 02:25:25;;;;;;;8.02;6.28;;;8.50;99.90;;;;;;5042629;28;20592;-76
2022/04/14 02:27:50;;;;;;;5.55;5.05;;;8.50;99.90;;;;;;5041191;28;20230;-76
2022/04/14 02:30:16;;;;;;;7.35;6.30;;;8.50;99.90;;;;;;5044740;28;20246;-76
2022/04/14 02:32:41;;;;;;;7.00;6.30;;;8.50;99.90;;;;;;5050394;28;20608;-76
2022/04/14 02:35:07;;;;;;;6.72;6.03;;;8.50;99.90;;;;;;5047505;28;20185;-76
2022/04/14 02:37:33;;;;;;;6.82;6.00;;;8.50;99.90;;;;;;5052834;28;20267;-76
2022/04/14 02:39:59;;;;;;;7.00;6.38;;;8.40;99.90;;;;;;5043323;28;20239;-76
2022/04/14 02:42:24;;;;;;;6.45;5.80;;;8.40;99.90;;;;;;5045330;28;20266;-76
2022/04/14 02:44:50;;;;;;;7.18;6.47;;;8.30;99.90;;;;;;5040049;28;20192;-76
2022/04/14 02:47:16;;;;;;;8.05;6.40;;;8.30;99.90;;;;;;5035455;28;20187;-76
2022/04/14 02:49:41;;;;;;;6.90;6.20;;;8.20;99.90;;;;;;5035447;28;20561;-76
2022/04/14 02:52:07;;;;;;;7.57;6.85;;;8.20;99.90;;;;;;5053764;28;20214;-76
2022/04/14 02:54:37;;;;;;;9.82;6.13;;;8.20;99.90;;;;;;5054447;28;20191;-77
2022/04/14 02:57:05;;;;;;;6.63;6.03;;;8.10;99.90;;;;;;5054867;28;20187;-76
2022/04/14 02:59:31;;;;;;;7.82;6.40;;;8.10;99.90;;;;;;5054248;28;20753;-77
2022/04/14 03:01:56;;;;;;;6.57;5.95;;;8.10;99.90;;;;;;5036154;28;20180;-77
2022/04/14 03:04:22;;;;;;;7.65;6.85;;;8.10;99.90;;;;;;5055124;28;20277;-77
2022/04/14 03:06:47;;;;;;;7.13;6.10;;;8.00;99.90;;;;;;5049926;28;20212;-77
2022/04/14 03:09:13;;;;;;;6.88;6.28;;;8.00;99.90;;;;;;5053554;28;20180;-77
2022/04/14 03:11:38;;;;;;;8.88;6.18;;;8.00;99.90;;;;;;5054174;28;20245;-76
2022/04/14 03:14:04;;;;;;;6.70;5.82;;;8.10;99.90;;;;;;5053573;28;20203;-76
2022/04/14 03:16:30;;;;;;;7.90;6.63;;;8.00;99.90;;;;;;5053626;28;20175;-77
2022/04/14 03:18:55;;;;;;;7.35;6.65;;;8.00;99.90;;;;;;5054655;28;20666;-77
2022/04/14 03:21:21;;;;;;;7.97;7.22;;;8.00;99.90;;;;;;5053235;28;20175;-77
2022/04/14 03:23:46;;;;;;;6.85;6.18;;;7.90;99.90;;;;;;5053593;28;20199;-76
2022/04/14 03:26:12;;;;;;;6.93;6.32;;;7.90;99.90;;;;;;5054475;28;20215;-77
2022/04/14 03:28:38;;;;;;;6.93;6.22;;;7.80;99.90;;;;;;5053824;28;20279;-77
2022/04/14 03:31:04;;;;;;;7.00;6.30;;;7.80;99.90;;;;;;5052360;28;20305;-77
2022/04/14 03:33:30;;;;;;;7.68;5.78;;;7.90;99.90;;;;;;5054456;28;20814;-76
2022/04/14 03:35:56;;;;;;;7.13;6.43;;;7.90;99.90;;;;;;5054216;28;20168;-76
2022/04/14 03:38:22;;;;;;;7.28;6.57;;;7.90;99.90;;;;;;5052623;28;20183;-76
2022/04/14 03:40:47;;;;;;;9.00;6.80;;;7.90;99.90;;;;;;5052631;28;20436;-76
2022/04/14 03:43:13;;;;;;;7.30;6.47;;;7.80;99.90;;;;;;5052874;28;20318;-76
2022/04/14 03:45:38;;;;;;;7.80;6.88;;;7.80;99.90;;;;;;5054064;28;20654;-76
2022/04/14 03:48:04;;;;;;;7.05;6.35;;;7.80;99.90;;;;;;5052891;28;20564;-76
2022/04/14 03:50:30;;;;;;;6.50;5.93;;;7.80;99.90;;;;;;5050328;28;20191;-76
2022/04/14 03:52:56;;;;;;;6.10;5.60;;;7.70;99.90;;;;;;5037419;28;20196;-76
2022/04/14 03:55:21;;;;;;;7.15;6.45;;;7.70;99.90;;;;;;5053965;28;20267;-76
2022/04/14 03:57:47;;;;;;;9.35;6.13;;;7.70;99.90;;;;;;5053088;28;20654;-76
2022/04/14 04:00:13;;;;;;;8.48;6.43;;;7.70;99.90;;;;;;5053709;28;20306;-76
2022/04/14 04:02:39;;;;;;;6.28;5.68;;;7.70;99.90;;;;;;5052587;28;20206;-76
2022/04/14 04:05:05;;;;;;;7.05;5.75;;;7.70;99.90;;;;;;5050654;28;20183;-76
2022/04/14 04:07:31;;;;;;;8.73;6.20;;;7.60;99.90;;;;;;5051380;28;20184;-76
2022/04/14 04:09:57;;;;;;;7.25;6.65;;;7.70;99.90;;;;;;5053091;28;20233;-76
2022/04/14 04:12:22;;;;;;;7.00;6.03;;;7.70;99.90;;;;;;5053085;28;20208;-76
2022/04/14 04:14:48;;;;;;;6.72;6.10;;;7.80;99.90;;;;;;5042040;28;20218;-76
2022/04/14 04:17:17;;;;;;;7.70;7.00;;;7.80;99.90;;;;;;5053465;28;20180;-76
2022/04/14 04:19:43;;;;;;;6.82;6.22;;;7.80;99.90;;;;;;5053581;28;20168;-76
2022/04/14 04:22:10;;;;;;;8.07;6.63;;;7.90;99.90;;;;;;5052932;28;20585;-76
2022/04/14 04:24:36;;;;;;;9.35;6.45;;;7.80;99.90;;;;;;5051750;28;20200;-76
2022/04/14 04:27:02;;;;;;;7.72;6.32;;;7.80;99.90;;;;;;5053317;28;20213;-77
2022/04/14 04:29:28;;;;;;;7.68;6.45;;;7.70;99.90;;;;;;5051592;28;20184;-76
2022/04/14 04:31:53;;;;;;;7.78;6.25;;;7.70;99.90;;;;;;5051468;28;20196;-77
2022/04/14 04:34:19;;;;;;;7.30;6.63;;;7.70;99.90;;;;;;5051034;28;20200;-77
2022/04/14 04:36:45;;;;;;;7.90;6.68;;;7.70;99.90;;;;;;5046458;28;20169;-77
2022/04/14 04:39:11;;;;;;;7.40;6.70;;;7.70;99.90;;;;;;5051289;28;20188;-77
2022/04/14 04:41:37;;;;;;;6.95;6.25;;;7.70;99.90;;;;;;5045873;28;20191;-76
2022/04/14 04:44:06;;;;;;;9.50;6.85;;;7.70;99.90;;;;;;5046276;28;20649;-76
2022/04/14 04:46:32;;;;;;;7.13;6.28;;;7.70;99.90;;;;;;5048859;28;20272;-76
2022/04/14 04:48:58;;;;;;;7.85;7.15;;;7.80;99.90;;;;;;5052044;28;20262;-77
2022/04/14 04:51:24;;;;;;;7.35;6.60;;;7.80;99.90;;;;;;5052328;28;20212;-77
2022/04/14 04:53:51;;;;;;;7.72;6.78;;;7.90;99.90;;;;;;5051961;28;20187;-78
2022/04/14 04:56:18;;;;;;;7.60;6.85;;;8.00;99.90;;;;;;5045341;28;20177;-79
2022/04/14 04:58:44;;;;;;;8.70;6.55;;;8.10;99.90;;;;;;5049476;28;20334;-79
2022/04/14 05:01:09;;;;;;;7.40;6.70;;;8.10;99.90;;;;;;5049620;28;20249;-80
2022/04/14 05:03:35;;;;;;;8.50;6.10;;;8.10;99.90;;;;;;5043180;28;20200;-80
2022/04/14 05:06:01;;;;;;;6.95;6.25;;;8.10;99.90;;;;;;5039076;28;20187;-79
2022/04/14 05:08:27;;;;;;;9.05;6.78;;;8.10;99.90;;;;;;5033612;28;20215;-80
2022/04/14 05:10:52;;;;;;;7.38;6.78;;;8.10;99.90;;;;;;5049561;28;20411;-79
2022/04/14 05:13:18;;;;;;;9.90;7.07;;;8.10;99.90;;;;;;5045834;28;20241;-79
2022/04/14 05:15:43;;;;;;;8.80;6.60;;;8.20;99.90;;;;;;5042784;28;20177;-77
2022/04/14 05:18:09;;;;;;;7.50;6.47;;;8.20;99.90;;;;;;5043531;28;20180;-76
2022/04/14 05:20:35;;;;;;;7.75;6.85;;;8.30;99.90;;;;;;5038285;28;20175;-77
2022/04/14 05:23:02;;;;;;;7.15;6.43;;;8.30;99.90;;;;;;5032176;28;20205;-76
2022/04/14 05:25:28;;;;;;;10.73;6.93;;;8.30;99.90;;;;;;5038213;28;20258;-77
2022/04/14 05:27:54;;;;;;;11.50;6.97;;;8.40;99.90;;;;;;5049270;28;20187;-81
2022/04/14 05:30:20;;;;;;;7.10;6.40;;;8.40;99.90;;;;;;5030913;28;20167;-77
2022/04/14 05:32:45;;;;;;;8.35;7.15;;;8.50;99.90;;;;;;5050166;28;20200;-76
2022/04/14 05:35:11;;;;;;;7.22;6.53;;;8.60;99.90;;;;;;5051957;28;20172;-75
2022/04/14 05:37:37;;;;;;;8.57;6.95;;;8.60;99.90;;;;;;5050676;28;20184;-74
2022/04/14 05:40:06;;;;;;;7.95;7.10;;;8.70;99.90;;;;;;5051664;28;20255;-76
2022/04/14 05:42:32;;;;;;;7.22;6.60;;;8.90;99.90;;;;;;5030898;28;20180;-74
2022/04/14 05:45:01;;;;;;;7.55;6.03;;;9.00;99.90;;;;;;5037979;28;20186;-74
2022/04/14 05:47:27;;;;;;;7.38;6.10;;;9.00;99.90;;;;;;5040659;28;20523;-75
2022/04/14 05:49:55;;;;;;;10.18;6.50;;;9.10;99.90;;;;;;5051340;28;20214;-76
2022/04/14 05:52:22;;;;;;;6.75;6.22;;;9.20;99.90;;;;;;5049962;28;20261;-75
2022/04/14 05:54:48;;;;;;;6.43;5.85;;;9.40;99.90;;;;;;5023693;28;20667;-74
2022/04/14 05:57:14;;;;;;;6.75;6.25;;;9.50;99.90;;;;;;5029037;28;20188;-76
2022/04/14 05:59:40;;;;;;;7.78;6.90;;;9.60;99.90;;;;;;5051844;28;20212;-77
2022/04/14 06:02:06;;;;;;;7.82;7.03;;;9.70;99.90;;;;;;5044110;28;20192;-77
2022/04/14 06:04:32;;;;;;;11.30;7.22;;;9.80;99.90;;;;;;5037306;28;20249;-76
2022/04/14 06:06:58;;;;;;;9.68;7.55;;;9.90;99.90;;;;;;5051436;28;20180;-77
2022/04/14 06:09:23;;;;;;;8.00;6.97;;;9.90;99.90;;;;;;5047348;28;20189;-76
2022/04/14 06:11:49;;;;;;;6.75;6.15;;;10.00;99.90;;;;;;5031500;28;20277;-76
2022/04/14 06:14:15;;;;;;;8.75;7.22;;;10.20;99.90;;;;;;5031664;28;20200;-76
2022/04/14 06:16:40;;;;;;;9.13;7.15;;;10.30;99.90;;;;;;5039420;28;20669;-78
2022/04/14 06:19:06;;;;;;;9.13;7.35;;;10.40;99.90;;;;;;5061411;28;20209;-76
2022/04/14 06:21:31;;;;;;;6.65;6.15;;;10.60;99.90;;;;;;5069781;28;20179;-77
2022/04/14 06:23:57;;;;;;;7.47;6.78;;;10.70;99.90;;;;;;5070076;28;20202;-76
2022/04/14 06:26:23;;;;;;;8.07;7.00;;;10.80;99.90;;;;;;5065205;28;20188;-77
2022/04/14 06:28:48;;;;;;;10.43;6.93;;;10.80;99.90;;;;;;5042793;28;20199;-77
2022/04/14 06:31:14;;;;;;;9.95;7.28;;;10.90;99.90;;;;;;5031322;28;20196;-76
2022/04/14 06:33:41;;;;;;;12.07;6.93;;;11.00;99.90;;;;;;5031204;28;20587;-76
2022/04/14 06:36:07;;;;;;;7.25;6.65;;;11.10;99.90;;;;;;5031466;28;20184;-77
2022/04/14 06:38:33;;;;;;;8.73;7.22;;;11.20;99.90;;;;;;5031417;28;20176;-77
2022/04/14 06:40:58;;;;;;;11.27;7.32;;;11.30;99.90;;;;;;5042384;28;20179;-77
2022/04/14 06:43:28;;;;;;;8.23;6.90;;;11.40;99.90;;;;;;5059957;28;20195;-77
2022/04/14 06:45:54;;;;;;;8.13;7.32;;;11.50;99.90;;;;;;5069919;28;20175;-77
2022/04/14 06:48:20;;;;;;;7.80;6.85;;;11.70;99.90;;;;;;5052536;28;20192;-76
2022/04/14 06:50:45;;;;;;;8.10;7.22;;;11.70;99.90;;;;;;5030146;28;20208;-77
2022/04/14 06:53:11;;;;;;;7.50;6.80;;;11.80;99.90;;;;;;5031237;28;20193;-76
2022/04/14 06:55:37;;;;;;;10.95;7.40;;;11.90;99.90;;;;;;5031410;28;20582;-77
2022/04/14 06:58:03;;;;;;;7.75;7.05;;;12.00;99.90;;;;;;5031356;28;20193;-77
2022/04/14 07:00:30;;;;;;;7.75;7.05;;;12.10;99.90;;;;;;5031305;28;20227;-77
2022/04/14 07:02:57;;;;;;;8.07;7.28;;;12.20;99.90;;;;;;5035172;28;20230;-76
2022/04/14 07:05:23;;;;;;;8.23;7.15;;;12.30;99.90;;;;;;5051359;28;20204;-76
2022/04/14 07:07:50;;;;;;;6.93;6.28;;;12.40;99.90;;;;;;5049031;28;20198;-75
2022/04/14 07:10:15;;;;;;;10.75;8.00;;;12.50;99.90;;;;;;5041460;28;20236;-75
2022/04/14 07:12:42;;;;;;;7.70;7.00;;;12.70;99.90;;;;;;5040313;28;20754;-74
2022/04/14 07:15:08;;;;;;;7.78;7.00;;;12.80;99.90;;;;;;5051229;28;20169;-74
2022/04/14 07:17:34;;;;;;;7.43;6.65;;;12.90;99.90;;;;;;5045287;28;20211;-75
2022/04/14 07:20:01;;;;;;;7.35;6.75;;;13.00;99.90;;;;;;5044769;28;20250;-75
2022/04/14 07:22:32;;;;;;;7.95;7.28;;;13.10;99.90;;;;;;5049232;28;20180;-80
2022/04/14 07:25:01;;;;;;;7.05;6.45;;;13.20;99.90;;;;;;5065203;28;20180;-78
2022/04/14 07:27:27;;;;;;;7.55;6.85;;;13.30;99.90;;;;;;5047347;28;20222;-79
2022/04/14 07:29:52;;;;;;;9.82;6.40;;;13.40;99.90;;;;;;5043947;28;20188;-82
2022/04/14 07:32:18;;;;;;;7.28;6.15;;;13.40;99.90;;;;;;5045041;28;20264;-79
2022/04/14 07:34:44;;;;;;;7.25;6.63;;;13.50;99.90;;;;;;5045168;28;20188;-81
2022/04/14 07:37:09;;;;;;;6.25;5.75;;;13.60;99.90;;;;;;5050494;28;20263;-78
2022/04/14 07:39:35;;;;;;;7.90;6.20;;;13.80;99.90;;;;;;5059565;28;20510;-81
2022/04/14 07:42:00;;;;;;;5.72;5.22;;;13.90;99.90;;;;;;5060812;28;20176;-82
2022/04/14 07:44:26;;;;;;;6.70;5.97;;;14.10;99.90;;;;;;5044214;28;20198;-83
2022/04/14 07:46:52;;;;;;;6.15;5.55;;;14.20;99.90;;;;;;5060767;28;20180;-83
2022/04/14 07:49:17;;;;;;;7.60;5.80;;;14.40;99.90;;;;;;5056092;28;20364;-81
2022/04/14 07:51:43;;;;;;;7.22;5.72;;;14.50;99.90;;;;;;5024008;28;20240;-80
2022/04/14 07:54:09;;;;;;;8.07;5.97;;;14.60;99.90;;;;;;5041126;28;20193;-83
2022/04/14 07:56:34;;;;;;;6.35;5.53;;;14.70;99.90;;;;;;5048595;28;20238;-80
2022/04/14 07:59:00;;;;;;;5.93;5.35;;;14.80;99.90;;;;;;5062747;28;20188;-82
2022/04/14 08:01:27;;;;;;;5.88;5.38;;;14.90;99.90;;;;;;5044313;28;20551;-84
2022/04/14 08:03:53;;;;;;;6.50;5.75;;;15.10;99.90;;;;;;5043374;28;20195;-84
2022/04/14 08:06:18;;;;;;;6.80;5.72;;;15.30;99.90;;;;;;5059984;28;20171;-84
2022/04/14 08:08:44;;;;;;;6.20;5.63;;;15.50;99.90;;;;;;5041142;28;20524;-81
2022/04/14 08:11:10;;;;;;;6.97;6.28;;;15.80;99.90;;;;;;5031716;28;20214;-81
2022/04/14 08:13:41;;;;;;;9.52;5.82;;;16.00;99.90;;;;;;5062140;28;20195;-79
2022/04/14 08:16:08;;;;;;;6.75;6.10;;;16.20;99.90;;;;;;5053720;28;20192;-79
2022/04/14 08:18:38;;;;;;;5.97;5.47;;;16.30;99.90;;;;;;5043364;28;20172;-79
2022/04/14 08:21:04;;;;;;;7.13;5.88;;;16.50;99.90;;;;;;5051164;28;20185;-79
2022/04/14 08:23:30;;;;;;;6.10;5.60;;;16.70;99.90;;;;;;5051571;28;20208;-79
2022/04/14 08:25:57;;;;;;;6.50;5.90;;;16.90;99.90;;;;;;5057635;28;20179;-79
2022/04/14 08:28:23;;;;;;;5.85;5.30;;;17.20;99.90;;;;;;5048264;28;20202;-79
2022/04/14 08:30:49;;;;;;;6.60;5.10;;;17.60;99.90;;;;;;5043606;28;20578;-79
2022/04/14 08:33:16;;;;;;;6.90;5.32;;;18.10;99.90;;;;;;5050093;28;20200;-87
2022/04/14 08:35:42;;;;;;;6.15;5.40;;;18.50;99.90;;;;;;5039542;28;20172;-78
2022/04/14 08:38:08;;;;;;;5.45;4.95;;;18.90;99.90;;;;;;5052541;28;20176;-79
2022/04/14 08:40:39;;;;;;;5.70;5.20;;;19.50;99.90;;;;;;5034577;28;20181;-79
2022/04/14 08:43:06;;;;;;;7.07;5.07;;;19.80;99.90;;;;;;5033081;28;20192;-79
2022/04/14 08:45:37;;;;;;;8.35;5.57;;;19.80;99.90;;;;;;5039900;28;20188;-77
2022/04/14 08:48:04;;;;;;;6.93;5.78;;;20.10;99.90;;;;;;5043395;28;20278;-78
2022/04/14 08:50:31;;;;;;;7.30;5.45;;;20.20;99.90;;;;;;5045125;28;20267;-77
2022/04/14 08:52:56;;;;;;;7.65;4.93;;;20.60;99.90;;;;;;5042625;28;20278;-77
2022/04/14 08:55:23;;;;;;;7.28;5.20;;;21.00;97.50;;;;;;5044040;28;20232;-77
2022/04/14 08:57:49;;;;;;;7.18;4.78;;;21.50;97.00;;;;;;5051565;28;20557;-77
2022/04/14 09:00:16;;;;;;;5.85;5.22;;;21.80;96.70;;;;;;5052420;28;20172;-77
2022/04/14 09:02:46;;;;;;;7.60;5.60;;;22.20;93.60;;;;;;5038885;28;20207;-77
2022/04/14 09:05:13;;;;;;;6.35;4.38;;;22.50;94.50;;;;;;5042979;28;20271;-77
2022/04/14 09:07:39;;;;;;;5.03;4.60;;;23.00;92.70;;;;;;5043582;28;20187;-77
2022/04/14 09:10:07;;;;;;;7.25;5.35;;;23.50;90.20;;;;;;5043712;28;20185;-77
2022/04/14 09:12:35;;;;;;;5.38;4.72;;;24.20;86.30;;;;;;5044993;28;20299;-77
2022/04/14 09:15:01;;;;;;;6.47;5.28;;;25.30;83.00;;;;;;5045484;28;20180;-78
2022/04/14 09:17:28;;;;;;;5.90;5.15;;;26.20;75.30;;;;;;5043080;28;20950;-78
2022/04/14 09:19:54;;;;;;;5.18;4.70;;;27.10;68.30;;;;;;5042440;28;20172;-77
2022/04/14 09:22:20;;;;;;;6.35;5.50;;;27.90;63.30;;;;;;5044475;28;20185;-77
2022/04/14 09:24:48;;;;;;;6.47;4.93;;;28.20;62.00;;;;;;5041248;28;20196;-77
2022/04/14 09:27:37;;;;;;;6.53;5.45;;;28.10;61.40;;;;;;5045088;28;20180;-78
2022/04/14 09:30:05;;;;;;;5.30;4.90;;;28.20;60.60;;;;;;5046853;28;20206;-74
2022/04/14 09:32:35;;;;;;;4.72;4.38;;;29.50;58.10;;;;;;5045347;28;20200;-74
2022/04/14 09:35:23;;;;;;;5.97;5.30;;;30.70;57.60;;;;;;5051944;28;20179;-74
2022/04/14 09:38:13;;;;;;;8.00;5.00;;;31.70;52.90;;;;;;5048240;28;20175;-74
2022/04/14 09:40:40;;;;;;;4.97;4.57;;;32.30;52.00;;;;;;5031527;28;20172;-72
2022/04/14 09:43:06;;;;;;;5.25;4.80;;;32.80;50.80;;;;;;5031547;28;20557;-71
2022/04/14 09:45:35;;;;;;;7.43;5.20;;;33.50;48.60;;;;;;5042957;28;20270;-70
2022/04/14 09:48:12;;;;;;;6.80;5.13;;;33.10;46.90;;;;;;5051222;28;20262;-71
2022/04/14 09:50:39;;;;;;;4.95;4.55;;;32.80;47.70;;;;;;5044883;28;20175;-71
2022/04/14 09:53:15;;;;;;;4.68;4.30;;;33.60;48.20;;;;;;5038981;28;20245;-72
2022/04/14 09:55:50;;;;;;;4.95;4.45;;;34.70;46.40;;;;;;5046717;28;20274;-71
2022/04/14 09:58:26;;;;;;;5.18;4.70;;;35.60;44.60;;;;;;5051346;28;20197;-71
2022/04/14 10:00:56;;;;;;;5.55;4.53;;;35.70;43.70;;;;;;5031792;28;20198;-72
2022/04/14 10:03:30;;;;;;;6.53;4.30;;;36.00;43.50;;;;;;5035862;28;20265;-72
2022/04/14 10:05:59;;;;;;;5.75;5.20;;;35.60;43.50;;;;;;5031685;28;20291;-71
2022/04/14 10:08:25;;;;;;;5.72;4.88;;;35.30;42.50;;;;;;5031664;28;20630;-72
2022/04/14 10:11:04;;;;;;;5.07;4.63;;;35.10;44.00;;;;;;5044095;28;20622;-72
2022/04/14 10:13:38;;;;;;;4.65;4.30;;;34.90;44.80;;;;;;5047692;28;20187;-71
2022/04/14 10:16:04;;;;;;;5.18;4.78;;;34.70;45.40;;;;;;5047840;28;20186;-72
2022/04/14 10:18:31;;;;;;;7.03;4.53;;;34.00;45.00;;;;;;5046523;28;20269;-70
2022/04/14 10:20:57;;;;;;;5.60;5.20;;;33.60;45.60;;;;;;5042525;28;20199;-70
2022/04/14 10:23:23;;;;;;;6.03;4.82;;;33.30;45.90;;;;;;5041443;28;20199;-71
2022/04/14 10:25:51;;;;;;;5.28;4.60;;;32.90;46.90;;;;;;5036651;28;20318;-71
2022/04/14 10:28:16;;;;;;;6.40;4.65;;;32.50;47.00;;;;;;5034070;28;20186;-70
2022/04/14 10:30:47;;;;;;;4.85;4.43;;;32.00;48.50;;;;;;5043264;28;20183;-71
2022/04/14 10:33:14;;;;;;;4.72;4.00;;;32.00;48.60;;;;;;5042347;28;20257;-70
2022/04/14 10:35:40;;;;;;;4.65;4.20;;;33.20;47.40;;;;;;5041418;28;20281;-70
2022/04/14 10:38:10;;;;;;;5.28;4.78;;;34.00;45.00;;;;;;5032887;28;20261;-70
2022/04/14 10:40:37;;;;;;;4.50;3.78;;;34.10;45.00;;;;;;5042894;28;20208;-70
2022/04/14 10:43:07;;;;;;;4.72;4.30;;;34.40;44.60;;;;;;5042117;28;20192;-70
2022/04/14 10:45:50;;;;;;;4.63;4.22;;;36.20;44.00;;;;;;5038221;28;20222;-70
2022/04/14 10:48:34;;;;;;;5.70;4.75;;;37.30;41.20;;;;;;5040046;28;20190;-70
2022/04/14 10:51:27;;;;;;;5.00;3.67;;;38.30;40.00;;;;;;5042124;28;20192;-70
2022/04/14 10:53:57;;;;;;;5.45;4.15;;;38.70;40.20;;;;;;5045910;28;20226;-69
2022/04/14 10:56:39;;;;;;;4.70;4.28;;;38.60;39.60;;;;;;5047885;28;20168;-70
2022/04/14 10:59:05;;;;;;;6.65;4.57;;;37.70;40.70;;;;;;5026201;28;20271;-69
2022/04/14 11:01:52;;;;;;;5.35;4.70;;;38.70;40.10;;;;;;5007650;28;20256;-69
2022/04/14 11:04:42;;;;;;;5.57;5.07;;;38.80;39.40;;;;;;5024387;28;20204;-69
2022/04/14 11:07:15;;;;;;;6.07;4.68;;;37.90;39.80;;;;;;5018056;28;20198;-69
2022/04/14 11:09:48;;;;;;;4.60;4.22;;;37.70;40.60;;;;;;5026235;28;20184;-70
2022/04/14 11:12:26;;;;;;;6.28;4.90;;;38.30;40.90;;;;;;5020636;28;20299;-70
2022/04/14 11:14:59;;;;;;;5.68;4.72;;;37.40;41.70;;;;;;5024152;28;20177;-70
2022/04/14 11:17:34;;;;;;;5.82;4.10;;;37.30;41.10;;;;;;5020225;28;20254;-70
2022/04/14 11:20:15;;;;;;;5.68;4.30;;;38.30;40.20;;;;;;5025757;28;20176;-70
2022/04/14 11:23:09;;;;;;;4.90;4.35;;;38.80;40.20;;;;;;5024975;28;20208;-70
2022/04/14 11:25:43;;;;;;;5.45;5.00;;;39.30;39.60;;;;;;5025793;28;20753;-70
2022/04/14 11:28:31;;;;;;;5.63;4.38;;;39.60;38.70;;;;;;5021811;28;20226;-70
2022/04/14 11:31:05;;;;;;;6.25;5.65;;;39.60;39.30;;;;;;5021074;28;20211;-70
2022/04/14 11:33:30;;;;;;;5.68;3.97;;;39.10;38.40;;;;;;5020209;28;20197;-73
2022/04/14 11:36:17;;;;;;;4.35;4.05;;;38.80;39.20;;;;;;5018357;28;20199;-70
2022/04/14 11:39:02;;;;;;;5.68;5.18;;;39.50;38.30;;;;;;5019593;28;20180;-71
2022/04/14 11:41:37;;;;;;;7.55;6.90;;;39.60;39.10;;;;;;5020342;28;20669;-72
2022/04/14 11:44:05;;;;;;;5.65;4.72;;;40.20;39.40;;;;;;5019827;28;20605;-70
2022/04/14 11:46:32;;;;;;;10.35;7.57;;;40.40;37.20;;;;;;5023182;28;20243;-69
2022/04/14 11:49:01;;;;;;;5.93;3.83;;;39.40;38.40;;;;;;5023881;28;20183;-70
2022/04/14 11:51:27;;;;;;;4.50;3.80;;;39.40;38.60;;;;;;5022173;28;20203;-70
2022/04/14 11:53:55;;;;;;;6.25;4.75;;;40.10;37.50;;;;;;5019723;28;20752;-70
2022/04/14 11:56:22;;;;;;;4.13;3.83;;;39.90;37.80;;;;;;5022974;28;20168;-70
2022/04/14 11:58:48;;;;;;;4.25;4.00;;;40.20;37.30;;;;;;5038600;28;20199;-70
2022/04/14 12:01:14;;;;;;;4.60;3.60;;;40.50;37.40;;;;;;5041383;28;20183;-70
2022/04/14 12:03:41;;;;;;;4.10;3.60;;;40.90;36.40;;;;;;5045140;28;20203;-70
2022/04/14 12:06:18;;;;;;;4.82;3.40;;;41.30;35.90;;;;;;5043374;28;20887;-70
2022/04/14 12:08:59;;;;;;;4.03;3.72;;;41.10;35.70;;;;;;5043474;28;20194;-70
2022/04/14 12:11:29;;;;;;;7.93;3.75;;;40.80;35.80;;;;;;5040888;28;20207;-70
2022/04/14 12:13:54;;;;;;;4.25;3.85;;;39.60;36.40;;;;;;5039746;28;20280;-70
2022/04/14 12:16:20;;;;;;;4.35;3.40;;;38.70;38.20;;;;;;5038274;28;20226;-70
2022/04/14 12:18:51;;;;;;;7.88;3.90;;;38.70;37.40;;;;;;5039295;28;20207;-70
2022/04/14 12:21:23;;;;;;;4.22;3.80;;;38.20;37.10;;;;;;5038313;28;20192;-70
2022/04/14 12:23:51;;;;;;;3.13;2.80;;;37.90;38.60;;;;;;5040758;28;20199;-70
2022/04/14 12:26:18;;;;;;;3.50;3.20;;;38.80;37.40;;;;;;5042572;28;20176;-72
2022/04/14 12:28:46;;;;;;;4.13;3.42;;;39.10;37.50;;;;;;5041195;28;20188;-71
2022/04/14 12:31:12;;;;;;;4.50;3.55;;;38.90;36.20;;;;;;5023246;28;20535;-73
2022/04/14 12:33:38;;;;;;;3.95;3.03;;;39.10;36.00;;;;;;5041502;28;20187;-71
2022/04/14 12:36:08;;;;;;;5.38;3.22;;;38.40;37.30;;;;;;5040670;28;20234;-72
2022/04/14 12:38:45;;;;;;;3.50;3.30;;;36.10;39.00;;;;;;5039322;28;20175;-71
2022/04/14 12:41:22;;;;;;;3.72;3.33;;;36.00;38.90;;;;;;5041955;28;20180;-71
2022/04/14 12:43:48;;;;;;;3.67;3.00;;;36.00;38.20;;;;;;5038550;28;20199;-70
2022/04/14 12:46:38;;;;;;;3.35;3.05;;;36.60;38.80;;;;;;5037416;28;20190;-70
2022/04/14 12:49:17;;;;;;;3.75;3.05;;;36.60;37.30;;;;;;5038639;28;20186;-73
2022/04/14 12:51:58;;;;;;;3.30;3.03;;;36.20;36.40;;;;;;5041887;28;20549;-70
2022/04/14 12:54:24;;;;;;;7.57;3.42;;;35.20;37.90;;;;;;5037837;28;20200;-70
2022/04/14 12:57:07;;;;;;;6.53;3.35;;;35.20;38.30;;;;;;5041126;28;20706;-70